sensor_id;sensor_type;location;lat;lon;timestamp;P1;durP1;ratioP1;P2;durP2;ratioP2
59854;SDS011;45732;52.850;6.896;2022-10-16T00:01:23;7.88;;;2.75;;
59854;SDS011;45732;52.850;6.896;2022-10-16T00:03:51;7.50;;;2.35;;
59854;SDS011;45732;52.850;6.896;2022-10-16T00:06:17;8.05;;;2.47;;
59854;SDS011;45732;52.850;6.896;2022-10-16T00:08:45;9.23;;;2.50;;
59854;SDS011;45732;52.850;6.896;2022-10-16T00:11:15;6.15;;;2.08;;
59854;SDS011;45732;52.850;6.896;2022-10-16T00:13:43;9.60;;;2.30;;
59854;SDS011;45732;52.850;6.896;2022-10-16T00:16:11;10.00;;;2.10;;
59854;SDS011;45732;52.850;6.896;2022-10-16T00:18:37;8.40;;;2.47;;
59854;SDS011;45732;52.850;6.896;2022-10-16T00:21:07;6.90;;;2.40;;
59854;SDS011;45732;52.850;6.896;2022-10-16T00:23:37;9.63;;;2.38;;
59854;SDS011;45732;52.850;6.896;2022-10-16T00:26:05;7.13;;;2.35;;
59854;SDS011;45732;52.850;6.896;2022-10-16T00:28:33;7.93;;;2.08;;
59854;SDS011;45732;52.850;6.896;2022-10-16T00:31:02;7.80;;;2.17;;
59854;SDS011;45732;52.850;6.896;2022-10-16T00:33:29;6.57;;;2.03;;
59854;SDS011;45732;52.850;6.896;2022-10-16T00:35:57;7.28;;;2.10;;
59854;SDS011;45732;52.850;6.896;2022-10-16T00:38:23;7.32;;;2.50;;
59854;SDS011;45732;52.850;6.896;2022-10-16T00:40:49;5.75;;;2.22;;
59854;SDS011;45732;52.850;6.896;2022-10-16T00:49:04;8.40;;;2.55;;
59854;SDS011;45732;52.850;6.896;2022-10-16T00:51:37;7.50;;;2.30;;
59854;SDS011;45732;52.850;6.896;2022-10-16T00:54:12;8.43;;;2.80;;
59854;SDS011;45732;52.850;6.896;2022-10-16T00:56:45;6.95;;;3.03;;
59854;SDS011;45732;52.850;6.896;2022-10-16T00:59:18;6.13;;;2.58;;
59854;SDS011;45732;52.850;6.896;2022-10-16T01:01:47;8.27;;;2.80;;
59854;SDS011;45732;52.850;6.896;2022-10-16T01:04:14;7.47;;;2.85;;
59854;SDS011;45732;52.850;6.896;2022-10-16T01:06:45;7.82;;;2.80;;
59854;SDS011;45732;52.850;6.896;2022-10-16T01:11:44;7.05;;;2.85;;
59854;SDS011;45732;52.850;6.896;2022-10-16T01:14:22;11.05;;;2.92;;
59854;SDS011;45732;52.850;6.896;2022-10-16T01:17:12;7.88;;;3.03;;
59854;SDS011;45732;52.850;6.896;2022-10-16T01:20:02;7.38;;;2.80;;
59854;SDS011;45732;52.850;6.896;2022-10-16T01:22:39;7.32;;;2.70;;
59854;SDS011;45732;52.850;6.896;2022-10-16T01:25:19;8.65;;;2.53;;
59854;SDS011;45732;52.850;6.896;2022-10-16T01:27:59;8.48;;;2.53;;
59854;SDS011;45732;52.850;6.896;2022-10-16T01:30:28;10.43;;;3.00;;
59854;SDS011;45732;52.850;6.896;2022-10-16T01:32:58;6.63;;;2.83;;
59854;SDS011;45732;52.850;6.896;2022-10-16T01:35:31;8.60;;;2.90;;
59854;SDS011;45732;52.850;6.896;2022-10-16T01:38:00;7.15;;;2.42;;
59854;SDS011;45732;52.850;6.896;2022-10-16T01:40:35;8.98;;;2.55;;
59854;SDS011;45732;52.850;6.896;2022-10-16T01:43:11;10.93;;;3.00;;
59854;SDS011;45732;52.850;6.896;2022-10-16T01:45:39;10.02;;;2.83;;
59854;SDS011;45732;52.850;6.896;2022-10-16T01:48:06;6.25;;;2.65;;
59854;SDS011;45732;52.850;6.896;2022-10-16T01:50:35;9.25;;;2.97;;
59854;SDS011;45732;52.850;6.896;2022-10-16T01:53:07;7.72;;;2.92;;
59854;SDS011;45732;52.850;6.896;2022-10-16T01:55:38;6.30;;;2.90;;
59854;SDS011;45732;52.850;6.896;2022-10-16T02:00:37;6.75;;;2.22;;
59854;SDS011;45732;52.850;6.896;2022-10-16T02:03:05;7.40;;;2.67;;
59854;SDS011;45732;52.850;6.896;2022-10-16T02:05:34;6.80;;;2.80;;
59854;SDS011;45732;52.850;6.896;2022-10-16T02:08:09;8.65;;;2.88;;
59854;SDS011;45732;52.850;6.896;2022-10-16T02:10:35;8.43;;;2.67;;
59854;SDS011;45732;52.850;6.896;2022-10-16T02:16:10;8.68;;;2.63;;
59854;SDS011;45732;52.850;6.896;2022-10-16T02:18:37;9.05;;;2.70;;
59854;SDS011;45732;52.850;6.896;2022-10-16T02:26:38;8.10;;;2.72;;
59854;SDS011;45732;52.850;6.896;2022-10-16T02:29:08;4.93;;;2.13;;
59854;SDS011;45732;52.850;6.896;2022-10-16T02:31:38;6.47;;;2.88;;
59854;SDS011;45732;52.850;6.896;2022-10-16T02:34:08;8.13;;;2.72;;
59854;SDS011;45732;52.850;6.896;2022-10-16T02:36:37;6.72;;;2.45;;
59854;SDS011;45732;52.850;6.896;2022-10-16T02:39:04;9.00;;;2.60;;
59854;SDS011;45732;52.850;6.896;2022-10-16T02:41:31;8.10;;;2.67;;
59854;SDS011;45732;52.850;6.896;2022-10-16T02:43:58;7.13;;;2.45;;
59854;SDS011;45732;52.850;6.896;2022-10-16T02:46:23;7.63;;;2.60;;
59854;SDS011;45732;52.850;6.896;2022-10-16T02:48:49;6.57;;;2.58;;
59854;SDS011;45732;52.850;6.896;2022-10-16T02:51:15;7.10;;;2.40;;
59854;SDS011;45732;52.850;6.896;2022-10-16T02:53:40;6.32;;;2.15;;
59854;SDS011;45732;52.850;6.896;2022-10-16T02:56:06;7.72;;;2.10;;
59854;SDS011;45732;52.850;6.896;2022-10-16T02:58:32;5.93;;;2.35;;
59854;SDS011;45732;52.850;6.896;2022-10-16T03:00:57;5.35;;;2.08;;
59854;SDS011;45732;52.850;6.896;2022-10-16T03:03:23;5.20;;;2.03;;
59854;SDS011;45732;52.850;6.896;2022-10-16T03:05:49;6.47;;;2.30;;
59854;SDS011;45732;52.850;6.896;2022-10-16T03:08:14;5.28;;;2.00;;
59854;SDS011;45732;52.850;6.896;2022-10-16T03:10:40;4.70;;;2.10;;
59854;SDS011;45732;52.850;6.896;2022-10-16T03:13:06;5.57;;;2.17;;
59854;SDS011;45732;52.850;6.896;2022-10-16T03:15:32;6.57;;;2.17;;
59854;SDS011;45732;52.850;6.896;2022-10-16T03:17:57;6.97;;;2.60;;
59854;SDS011;45732;52.850;6.896;2022-10-16T03:20:24;8.48;;;2.42;;
59854;SDS011;45732;52.850;6.896;2022-10-16T03:22:50;5.63;;;2.20;;
59854;SDS011;45732;52.850;6.896;2022-10-16T03:25:16;5.38;;;2.33;;
59854;SDS011;45732;52.850;6.896;2022-10-16T03:27:41;8.48;;;2.63;;
59854;SDS011;45732;52.850;6.896;2022-10-16T03:30:07;7.25;;;2.75;;
59854;SDS011;45732;52.850;6.896;2022-10-16T03:32:33;7.28;;;3.05;;
59854;SDS011;45732;52.850;6.896;2022-10-16T03:34:59;6.70;;;2.70;;
59854;SDS011;45732;52.850;6.896;2022-10-16T03:37:25;6.07;;;2.70;;
59854;SDS011;45732;52.850;6.896;2022-10-16T03:39:51;6.65;;;2.63;;
59854;SDS011;45732;52.850;6.896;2022-10-16T03:42:16;5.38;;;2.47;;
59854;SDS011;45732;52.850;6.896;2022-10-16T03:44:42;8.27;;;3.00;;
59854;SDS011;45732;52.850;6.896;2022-10-16T03:47:08;7.72;;;2.53;;
59854;SDS011;45732;52.850;6.896;2022-10-16T03:49:34;7.65;;;3.28;;
59854;SDS011;45732;52.850;6.896;2022-10-16T03:51:59;8.77;;;3.05;;
59854;SDS011;45732;52.850;6.896;2022-10-16T03:54:25;8.48;;;4.18;;
59854;SDS011;45732;52.850;6.896;2022-10-16T03:56:51;9.02;;;3.30;;
59854;SDS011;45732;52.850;6.896;2022-10-16T03:59:16;7.25;;;2.70;;
59854;SDS011;45732;52.850;6.896;2022-10-16T04:01:42;5.82;;;2.92;;
59854;SDS011;45732;52.850;6.896;2022-10-16T04:04:08;6.95;;;3.17;;
59854;SDS011;45732;52.850;6.896;2022-10-16T04:06:34;5.38;;;2.70;;
59854;SDS011;45732;52.850;6.896;2022-10-16T04:08:59;7.53;;;2.63;;
59854;SDS011;45732;52.850;6.896;2022-10-16T04:11:25;6.55;;;2.55;;
59854;SDS011;45732;52.850;6.896;2022-10-16T04:13:51;7.18;;;3.10;;
59854;SDS011;45732;52.850;6.896;2022-10-16T04:16:16;7.68;;;2.85;;
59854;SDS011;45732;52.850;6.896;2022-10-16T04:18:42;7.32;;;2.90;;
59854;SDS011;45732;52.850;6.896;2022-10-16T04:21:08;6.65;;;3.05;;
59854;SDS011;45732;52.850;6.896;2022-10-16T04:23:33;7.22;;;3.15;;
59854;SDS011;45732;52.850;6.896;2022-10-16T04:25:59;6.70;;;3.25;;
59854;SDS011;45732;52.850;6.896;2022-10-16T04:28:25;5.95;;;3.25;;
59854;SDS011;45732;52.850;6.896;2022-10-16T04:30:52;7.13;;;3.15;;
59854;SDS011;45732;52.850;6.896;2022-10-16T04:33:17;10.20;;;3.67;;
59854;SDS011;45732;52.850;6.896;2022-10-16T04:35:43;5.75;;;3.22;;
59854;SDS011;45732;52.850;6.896;2022-10-16T04:38:09;8.48;;;3.78;;
59854;SDS011;45732;52.850;6.896;2022-10-16T04:40:34;7.18;;;3.78;;
59854;SDS011;45732;52.850;6.896;2022-10-16T04:43:02;8.15;;;3.67;;
59854;SDS011;45732;52.850;6.896;2022-10-16T04:45:29;7.28;;;3.78;;
59854;SDS011;45732;52.850;6.896;2022-10-16T04:47:58;6.40;;;3.50;;
59854;SDS011;45732;52.850;6.896;2022-10-16T04:50:24;9.00;;;3.70;;
59854;SDS011;45732;52.850;6.896;2022-10-16T04:52:50;8.10;;;3.55;;
59854;SDS011;45732;52.850;6.896;2022-10-16T04:55:16;8.13;;;3.40;;
59854;SDS011;45732;52.850;6.896;2022-10-16T04:57:42;6.97;;;4.40;;
59854;SDS011;45732;52.850;6.896;2022-10-16T05:00:08;7.38;;;3.80;;
59854;SDS011;45732;52.850;6.896;2022-10-16T05:02:34;6.18;;;3.47;;
59854;SDS011;45732;52.850;6.896;2022-10-16T05:05:00;9.02;;;3.60;;
59854;SDS011;45732;52.850;6.896;2022-10-16T05:07:26;7.03;;;3.45;;
59854;SDS011;45732;52.850;6.896;2022-10-16T05:09:51;8.23;;;3.53;;
59854;SDS011;45732;52.850;6.896;2022-10-16T05:12:18;7.00;;;3.55;;
59854;SDS011;45732;52.850;6.896;2022-10-16T05:14:43;6.68;;;4.13;;
59854;SDS011;45732;52.850;6.896;2022-10-16T05:17:09;6.50;;;3.50;;
59854;SDS011;45732;52.850;6.896;2022-10-16T05:19:35;6.22;;;3.60;;
59854;SDS011;45732;52.850;6.896;2022-10-16T05:22:00;11.20;;;3.83;;
59854;SDS011;45732;52.850;6.896;2022-10-16T05:24:26;8.20;;;4.90;;
59854;SDS011;45732;52.850;6.896;2022-10-16T05:26:52;6.10;;;3.65;;
59854;SDS011;45732;52.850;6.896;2022-10-16T05:29:18;8.70;;;3.78;;
59854;SDS011;45732;52.850;6.896;2022-10-16T05:31:43;7.15;;;4.00;;
59854;SDS011;45732;52.850;6.896;2022-10-16T05:34:09;8.20;;;3.67;;
59854;SDS011;45732;52.850;6.896;2022-10-16T05:36:35;8.18;;;4.00;;
59854;SDS011;45732;52.850;6.896;2022-10-16T05:39:00;8.23;;;4.43;;
59854;SDS011;45732;52.850;6.896;2022-10-16T05:41:26;7.90;;;5.13;;
59854;SDS011;45732;52.850;6.896;2022-10-16T05:43:52;9.27;;;4.70;;
59854;SDS011;45732;52.850;6.896;2022-10-16T05:46:18;7.80;;;3.92;;
59854;SDS011;45732;52.850;6.896;2022-10-16T05:48:45;7.95;;;4.32;;
59854;SDS011;45732;52.850;6.896;2022-10-16T05:51:11;7.40;;;3.55;;
59854;SDS011;45732;52.850;6.896;2022-10-16T05:53:38;6.18;;;3.47;;
59854;SDS011;45732;52.850;6.896;2022-10-16T05:56:05;6.88;;;3.33;;
59854;SDS011;45732;52.850;6.896;2022-10-16T05:58:33;7.78;;;4.03;;
59854;SDS011;45732;52.850;6.896;2022-10-16T06:01:10;5.57;;;3.50;;
59854;SDS011;45732;52.850;6.896;2022-10-16T06:03:37;6.32;;;3.47;;
59854;SDS011;45732;52.850;6.896;2022-10-16T06:06:25;8.50;;;3.40;;
59854;SDS011;45732;52.850;6.896;2022-10-16T06:08:51;8.43;;;3.88;;
59854;SDS011;45732;52.850;6.896;2022-10-16T06:11:18;8.57;;;3.10;;
59854;SDS011;45732;52.850;6.896;2022-10-16T06:13:49;6.40;;;3.35;;
59854;SDS011;45732;52.850;6.896;2022-10-16T06:16:16;8.18;;;3.25;;
59854;SDS011;45732;52.850;6.896;2022-10-16T06:18:42;8.30;;;3.53;;
59854;SDS011;45732;52.850;6.896;2022-10-16T06:21:09;8.13;;;3.25;;
59854;SDS011;45732;52.850;6.896;2022-10-16T06:23:36;7.35;;;3.38;;
59854;SDS011;45732;52.850;6.896;2022-10-16T06:26:09;7.38;;;3.13;;
59854;SDS011;45732;52.850;6.896;2022-10-16T06:28:36;6.57;;;2.72;;
59854;SDS011;45732;52.850;6.896;2022-10-16T06:31:03;6.05;;;2.70;;
59854;SDS011;45732;52.850;6.896;2022-10-16T06:33:31;5.57;;;2.80;;
59854;SDS011;45732;52.850;6.896;2022-10-16T06:36:03;6.28;;;3.00;;
59854;SDS011;45732;52.850;6.896;2022-10-16T06:38:31;6.93;;;2.97;;
59854;SDS011;45732;52.850;6.896;2022-10-16T06:40:57;7.93;;;2.55;;
59854;SDS011;45732;52.850;6.896;2022-10-16T06:43:23;7.70;;;2.97;;
59854;SDS011;45732;52.850;6.896;2022-10-16T06:45:53;6.22;;;2.72;;
59854;SDS011;45732;52.850;6.896;2022-10-16T06:48:22;7.32;;;2.90;;
59854;SDS011;45732;52.850;6.896;2022-10-16T06:53:24;9.07;;;2.80;;
59854;SDS011;45732;52.850;6.896;2022-10-16T06:55:50;7.30;;;2.40;;
59854;SDS011;45732;52.850;6.896;2022-10-16T06:58:16;7.10;;;2.78;;
59854;SDS011;45732;52.850;6.896;2022-10-16T07:00:42;5.47;;;2.40;;
59854;SDS011;45732;52.850;6.896;2022-10-16T07:03:08;6.65;;;2.78;;
59854;SDS011;45732;52.850;6.896;2022-10-16T07:05:43;7.43;;;2.60;;
59854;SDS011;45732;52.850;6.896;2022-10-16T07:08:08;6.07;;;2.30;;
59854;SDS011;45732;52.850;6.896;2022-10-16T07:10:34;6.75;;;2.35;;
59854;SDS011;45732;52.850;6.896;2022-10-16T07:13:00;5.22;;;2.65;;
59854;SDS011;45732;52.850;6.896;2022-10-16T07:15:26;6.25;;;2.58;;
59854;SDS011;45732;52.850;6.896;2022-10-16T07:17:53;5.53;;;2.70;;
59854;SDS011;45732;52.850;6.896;2022-10-16T07:20:19;8.60;;;2.60;;
59854;SDS011;45732;52.850;6.896;2022-10-16T07:22:45;6.20;;;2.55;;
59854;SDS011;45732;52.850;6.896;2022-10-16T07:25:11;6.53;;;3.22;;
59854;SDS011;45732;52.850;6.896;2022-10-16T07:27:37;7.82;;;2.70;;
59854;SDS011;45732;52.850;6.896;2022-10-16T07:30:03;4.38;;;2.40;;
59854;SDS011;45732;52.850;6.896;2022-10-16T07:32:29;5.85;;;2.50;;
59854;SDS011;45732;52.850;6.896;2022-10-16T07:34:55;6.00;;;2.42;;
59854;SDS011;45732;52.850;6.896;2022-10-16T07:37:21;4.78;;;2.53;;
59854;SDS011;45732;52.850;6.896;2022-10-16T07:39:47;6.85;;;2.45;;
59854;SDS011;45732;52.850;6.896;2022-10-16T07:42:12;6.35;;;2.70;;
59854;SDS011;45732;52.850;6.896;2022-10-16T07:44:38;8.90;;;3.33;;
59854;SDS011;45732;52.850;6.896;2022-10-16T07:47:05;5.72;;;2.47;;
59854;SDS011;45732;52.850;6.896;2022-10-16T07:49:30;6.65;;;3.00;;
59854;SDS011;45732;52.850;6.896;2022-10-16T07:51:56;10.52;;;2.67;;
59854;SDS011;45732;52.850;6.896;2022-10-16T07:54:22;6.53;;;2.60;;
59854;SDS011;45732;52.850;6.896;2022-10-16T07:56:47;5.55;;;2.40;;
59854;SDS011;45732;52.850;6.896;2022-10-16T07:59:13;7.88;;;2.85;;
59854;SDS011;45732;52.850;6.896;2022-10-16T08:01:39;9.25;;;2.65;;
59854;SDS011;45732;52.850;6.896;2022-10-16T08:04:07;5.00;;;2.20;;
59854;SDS011;45732;52.850;6.896;2022-10-16T08:06:37;6.50;;;2.60;;
59854;SDS011;45732;52.850;6.896;2022-10-16T08:09:04;7.25;;;2.65;;
59854;SDS011;45732;52.850;6.896;2022-10-16T08:11:31;9.40;;;2.58;;
59854;SDS011;45732;52.850;6.896;2022-10-16T08:13:57;7.47;;;2.45;;
59854;SDS011;45732;52.850;6.896;2022-10-16T08:16:23;7.50;;;2.20;;
59854;SDS011;45732;52.850;6.896;2022-10-16T08:18:49;6.45;;;2.38;;
59854;SDS011;45732;52.850;6.896;2022-10-16T08:21:17;7.18;;;2.30;;
59854;SDS011;45732;52.850;6.896;2022-10-16T08:23:44;7.53;;;2.13;;
59854;SDS011;45732;52.850;6.896;2022-10-16T08:26:11;6.43;;;2.10;;
59854;SDS011;45732;52.850;6.896;2022-10-16T08:28:37;5.68;;;2.13;;
59854;SDS011;45732;52.850;6.896;2022-10-16T08:31:07;8.18;;;2.00;;
59854;SDS011;45732;52.850;6.896;2022-10-16T08:33:34;6.93;;;1.98;;
59854;SDS011;45732;52.850;6.896;2022-10-16T08:36:01;5.30;;;2.08;;
59854;SDS011;45732;52.850;6.896;2022-10-16T08:38:27;6.15;;;1.67;;
59854;SDS011;45732;52.850;6.896;2022-10-16T08:40:53;5.47;;;1.35;;
59854;SDS011;45732;52.850;6.896;2022-10-16T08:43:47;4.05;;;1.50;;
59854;SDS011;45732;52.850;6.896;2022-10-16T08:46:37;3.88;;;1.50;;
59854;SDS011;45732;52.850;6.896;2022-10-16T08:49:27;5.72;;;1.42;;
59854;SDS011;45732;52.850;6.896;2022-10-16T08:51:55;4.18;;;1.50;;
59854;SDS011;45732;52.850;6.896;2022-10-16T08:54:55;4.65;;;1.70;;
59854;SDS011;45732;52.850;6.896;2022-10-16T08:57:19;6.55;;;2.05;;
59854;SDS011;45732;52.850;6.896;2022-10-16T08:59:46;5.32;;;1.95;;
59854;SDS011;45732;52.850;6.896;2022-10-16T09:07:54;7.20;;;1.80;;
59854;SDS011;45732;52.850;6.896;2022-10-16T09:10:56;7.22;;;2.10;;
59854;SDS011;45732;52.850;6.896;2022-10-16T09:21:50;7.28;;;2.03;;
59854;SDS011;45732;52.850;6.896;2022-10-16T09:24:19;7.68;;;1.70;;
59854;SDS011;45732;52.850;6.896;2022-10-16T09:26:47;7.40;;;2.00;;
59854;SDS011;45732;52.850;6.896;2022-10-16T09:29:16;5.18;;;1.80;;
59854;SDS011;45732;52.850;6.896;2022-10-16T09:31:45;6.85;;;2.17;;
59854;SDS011;45732;52.850;6.896;2022-10-16T09:34:21;11.07;;;2.10;;
59854;SDS011;45732;52.850;6.896;2022-10-16T09:36:57;7.78;;;1.92;;
59854;SDS011;45732;52.850;6.896;2022-10-16T09:39:25;8.88;;;1.75;;
59854;SDS011;45732;52.850;6.896;2022-10-16T09:41:51;5.80;;;1.85;;
59854;SDS011;45732;52.850;6.896;2022-10-16T09:46:48;7.75;;;1.80;;
59854;SDS011;45732;52.850;6.896;2022-10-16T09:49:25;14.18;;;1.98;;
59854;SDS011;45732;52.850;6.896;2022-10-16T09:51:51;8.05;;;2.03;;
59854;SDS011;45732;52.850;6.896;2022-10-16T09:54:30;8.35;;;1.80;;
59854;SDS011;45732;52.850;6.896;2022-10-16T09:57:10;6.30;;;1.52;;
59854;SDS011;45732;52.850;6.896;2022-10-16T09:59:45;8.85;;;1.80;;
59854;SDS011;45732;52.850;6.896;2022-10-16T10:02:16;8.63;;;1.58;;
59854;SDS011;45732;52.850;6.896;2022-10-16T10:04:55;11.30;;;3.40;;
59854;SDS011;45732;52.850;6.896;2022-10-16T10:07:31;7.63;;;2.10;;
59854;SDS011;45732;52.850;6.896;2022-10-16T10:10:01;9.82;;;2.10;;
59854;SDS011;45732;52.850;6.896;2022-10-16T10:12:29;11.35;;;2.15;;
59854;SDS011;45732;52.850;6.896;2022-10-16T10:15:06;11.05;;;2.15;;
59854;SDS011;45732;52.850;6.896;2022-10-16T10:17:44;10.63;;;2.15;;
59854;SDS011;45732;52.850;6.896;2022-10-16T10:20:18;7.90;;;1.85;;
59854;SDS011;45732;52.850;6.896;2022-10-16T10:22:54;10.73;;;2.40;;
59854;SDS011;45732;52.850;6.896;2022-10-16T10:25:33;10.88;;;2.10;;
59854;SDS011;45732;52.850;6.896;2022-10-16T10:28:42;14.48;;;2.40;;
59854;SDS011;45732;52.850;6.896;2022-10-16T10:33:58;10.57;;;2.10;;
59854;SDS011;45732;52.850;6.896;2022-10-16T10:36:44;12.98;;;2.83;;
59854;SDS011;45732;52.850;6.896;2022-10-16T10:39:28;12.05;;;2.03;;
59854;SDS011;45732;52.850;6.896;2022-10-16T10:47:31;9.18;;;2.17;;
59854;SDS011;45732;52.850;6.896;2022-10-16T10:50:26;11.52;;;2.08;;
59854;SDS011;45732;52.850;6.896;2022-10-16T10:53:01;10.65;;;2.10;;
59854;SDS011;45732;52.850;6.896;2022-10-16T11:01:19;10.27;;;2.20;;
59854;SDS011;45732;52.850;6.896;2022-10-16T11:07:02;10.43;;;3.20;;
59854;SDS011;45732;52.850;6.896;2022-10-16T11:09:31;9.65;;;2.92;;
59854;SDS011;45732;52.850;6.896;2022-10-16T11:12:25;9.82;;;2.47;;
59854;SDS011;45732;52.850;6.896;2022-10-16T11:17:29;16.83;;;5.53;;
59854;SDS011;45732;52.850;6.896;2022-10-16T11:20:05;11.80;;;3.40;;
59854;SDS011;45732;52.850;6.896;2022-10-16T11:22:47;11.95;;;3.75;;
59854;SDS011;45732;52.850;6.896;2022-10-16T11:25:27;13.40;;;4.18;;
59854;SDS011;45732;52.850;6.896;2022-10-16T11:28:14;13.35;;;3.42;;
59854;SDS011;45732;52.850;6.896;2022-10-16T11:33:43;7.20;;;2.25;;
59854;SDS011;45732;52.850;6.896;2022-10-16T11:39:21;10.00;;;2.38;;
59854;SDS011;45732;52.850;6.896;2022-10-16T11:42:10;12.43;;;2.83;;
59854;SDS011;45732;52.850;6.896;2022-10-16T11:44:50;12.13;;;3.17;;
59854;SDS011;45732;52.850;6.896;2022-10-16T11:47:43;11.48;;;2.70;;
59854;SDS011;45732;52.850;6.896;2022-10-16T11:50:27;10.25;;;2.92;;
59854;SDS011;45732;52.850;6.896;2022-10-16T11:55:44;7.47;;;2.08;;
59854;SDS011;45732;52.850;6.896;2022-10-16T12:03:54;9.10;;;2.10;;
59854;SDS011;45732;52.850;6.896;2022-10-16T12:06:45;10.77;;;1.90;;
59854;SDS011;45732;52.850;6.896;2022-10-16T12:09:18;9.18;;;1.98;;
59854;SDS011;45732;52.850;6.896;2022-10-16T12:11:50;11.10;;;2.00;;
59854;SDS011;45732;52.850;6.896;2022-10-16T12:14:21;13.43;;;2.78;;
59854;SDS011;45732;52.850;6.896;2022-10-16T12:17:03;5.80;;;1.92;;
59854;SDS011;45732;52.850;6.896;2022-10-16T12:20:12;10.75;;;2.10;;
59854;SDS011;45732;52.850;6.896;2022-10-16T12:25:20;9.50;;;2.03;;
59854;SDS011;45732;52.850;6.896;2022-10-16T12:27:57;11.55;;;2.05;;
59854;SDS011;45732;52.850;6.896;2022-10-16T12:30:26;9.25;;;2.13;;
59854;SDS011;45732;52.850;6.896;2022-10-16T12:32:55;8.23;;;1.80;;
59854;SDS011;45732;52.850;6.896;2022-10-16T12:35:27;10.45;;;2.13;;
59854;SDS011;45732;52.850;6.896;2022-10-16T12:38:04;9.25;;;1.73;;
59854;SDS011;45732;52.850;6.896;2022-10-16T12:40:55;9.10;;;1.77;;
59854;SDS011;45732;52.850;6.896;2022-10-16T12:43:37;10.93;;;1.83;;
59854;SDS011;45732;52.850;6.896;2022-10-16T12:48:35;10.63;;;2.20;;
59854;SDS011;45732;52.850;6.896;2022-10-16T12:54:00;9.07;;;1.73;;
59854;SDS011;45732;52.850;6.896;2022-10-16T12:56:34;7.68;;;2.28;;
59854;SDS011;45732;52.850;6.896;2022-10-16T13:00:02;7.93;;;1.83;;
59854;SDS011;45732;52.850;6.896;2022-10-16T13:18:40;10.68;;;2.08;;
59854;SDS011;45732;52.850;6.896;2022-10-16T13:24:22;8.93;;;1.85;;
59854;SDS011;45732;52.850;6.896;2022-10-16T13:30:14;10.57;;;2.33;;
59854;SDS011;45732;52.850;6.896;2022-10-16T13:32:47;9.35;;;1.90;;
59854;SDS011;45732;52.850;6.896;2022-10-16T13:35:22;10.60;;;2.05;;
59854;SDS011;45732;52.850;6.896;2022-10-16T13:37:49;7.32;;;1.75;;
59854;SDS011;45732;52.850;6.896;2022-10-16T13:40:22;6.72;;;1.73;;
59854;SDS011;45732;52.850;6.896;2022-10-16T13:42:49;9.43;;;2.05;;
59854;SDS011;45732;52.850;6.896;2022-10-16T13:45:21;10.35;;;2.25;;
59854;SDS011;45732;52.850;6.896;2022-10-16T13:48:00;11.07;;;2.28;;
59854;SDS011;45732;52.850;6.896;2022-10-16T13:50:27;9.60;;;1.83;;
59854;SDS011;45732;52.850;6.896;2022-10-16T13:53:02;7.97;;;1.85;;
59854;SDS011;45732;52.850;6.896;2022-10-16T13:55:32;14.05;;;2.20;;
59854;SDS011;45732;52.850;6.896;2022-10-16T13:58:05;8.02;;;1.80;;
59854;SDS011;45732;52.850;6.896;2022-10-16T14:00:36;11.02;;;2.00;;
59854;SDS011;45732;52.850;6.896;2022-10-16T14:03:03;9.57;;;2.25;;
59854;SDS011;45732;52.850;6.896;2022-10-16T14:05:31;12.52;;;2.38;;
59854;SDS011;45732;52.850;6.896;2022-10-16T14:07:58;9.60;;;2.20;;
59854;SDS011;45732;52.850;6.896;2022-10-16T14:10:28;12.27;;;1.80;;
59854;SDS011;45732;52.850;6.896;2022-10-16T14:13:00;8.90;;;2.30;;
59854;SDS011;45732;52.850;6.896;2022-10-16T14:15:32;11.50;;;2.53;;
59854;SDS011;45732;52.850;6.896;2022-10-16T14:18:00;11.40;;;2.00;;
59854;SDS011;45732;52.850;6.896;2022-10-16T14:20:27;10.50;;;2.30;;
59854;SDS011;45732;52.850;6.896;2022-10-16T14:23:17;7.05;;;1.60;;
59854;SDS011;45732;52.850;6.896;2022-10-16T14:25:46;9.35;;;1.73;;
59854;SDS011;45732;52.850;6.896;2022-10-16T14:30:59;12.23;;;2.03;;
59854;SDS011;45732;52.850;6.896;2022-10-16T14:38:35;9.18;;;1.98;;
59854;SDS011;45732;52.850;6.896;2022-10-16T14:41:03;10.15;;;1.70;;
59854;SDS011;45732;52.850;6.896;2022-10-16T14:43:36;9.07;;;1.67;;
59854;SDS011;45732;52.850;6.896;2022-10-16T14:46:06;8.90;;;1.85;;
59854;SDS011;45732;52.850;6.896;2022-10-16T14:48:41;8.10;;;2.00;;
59854;SDS011;45732;52.850;6.896;2022-10-16T14:51:11;8.70;;;1.92;;
59854;SDS011;45732;52.850;6.896;2022-10-16T14:53:39;11.20;;;2.10;;
59854;SDS011;45732;52.850;6.896;2022-10-16T14:56:06;8.85;;;1.80;;
59854;SDS011;45732;52.850;6.896;2022-10-16T14:58:34;10.15;;;1.90;;
59854;SDS011;45732;52.850;6.896;2022-10-16T15:01:00;7.18;;;1.77;;
59854;SDS011;45732;52.850;6.896;2022-10-16T15:03:26;13.05;;;2.22;;
59854;SDS011;45732;52.850;6.896;2022-10-16T15:05:51;9.75;;;1.83;;
59854;SDS011;45732;52.850;6.896;2022-10-16T15:08:17;8.27;;;1.92;;
59854;SDS011;45732;52.850;6.896;2022-10-16T15:10:43;7.13;;;1.52;;
59854;SDS011;45732;52.850;6.896;2022-10-16T15:13:11;10.10;;;1.55;;
59854;SDS011;45732;52.850;6.896;2022-10-16T15:15:39;8.25;;;1.77;;
59854;SDS011;45732;52.850;6.896;2022-10-16T15:18:08;11.65;;;2.33;;
59854;SDS011;45732;52.850;6.896;2022-10-16T15:20:34;11.02;;;2.17;;
59854;SDS011;45732;52.850;6.896;2022-10-16T15:23:05;7.93;;;1.70;;
59854;SDS011;45732;52.850;6.896;2022-10-16T15:25:43;10.23;;;1.77;;
59854;SDS011;45732;52.850;6.896;2022-10-16T15:28:11;8.68;;;2.15;;
59854;SDS011;45732;52.850;6.896;2022-10-16T15:30:38;8.00;;;1.75;;
59854;SDS011;45732;52.850;6.896;2022-10-16T15:33:05;10.90;;;2.30;;
59854;SDS011;45732;52.850;6.896;2022-10-16T15:35:36;8.63;;;2.30;;
59854;SDS011;45732;52.850;6.896;2022-10-16T15:38:01;8.15;;;2.00;;
59854;SDS011;45732;52.850;6.896;2022-10-16T15:40:27;9.30;;;2.03;;
59854;SDS011;45732;52.850;6.896;2022-10-16T15:42:53;9.68;;;1.85;;
59854;SDS011;45732;52.850;6.896;2022-10-16T15:45:18;9.60;;;2.20;;
59854;SDS011;45732;52.850;6.896;2022-10-16T15:47:44;7.60;;;2.20;;
59854;SDS011;45732;52.850;6.896;2022-10-16T15:50:11;10.45;;;1.80;;
59854;SDS011;45732;52.850;6.896;2022-10-16T15:52:38;10.10;;;2.03;;
59854;SDS011;45732;52.850;6.896;2022-10-16T15:55:10;9.88;;;2.10;;
59854;SDS011;45732;52.850;6.896;2022-10-16T15:57:37;10.98;;;2.30;;
59854;SDS011;45732;52.850;6.896;2022-10-16T16:00:05;13.32;;;2.60;;
59854;SDS011;45732;52.850;6.896;2022-10-16T16:02:41;8.63;;;2.30;;
59854;SDS011;45732;52.850;6.896;2022-10-16T16:05:08;8.55;;;2.28;;
59854;SDS011;45732;52.850;6.896;2022-10-16T16:07:36;10.05;;;2.40;;
59854;SDS011;45732;52.850;6.896;2022-10-16T16:10:04;8.88;;;2.17;;
59854;SDS011;45732;52.850;6.896;2022-10-16T16:12:31;9.27;;;2.65;;
59854;SDS011;45732;52.850;6.896;2022-10-16T16:14:57;7.38;;;2.30;;
59854;SDS011;45732;52.850;6.896;2022-10-16T16:17:23;8.50;;;2.30;;
59854;SDS011;45732;52.850;6.896;2022-10-16T16:19:49;7.65;;;2.22;;
59854;SDS011;45732;52.850;6.896;2022-10-16T16:22:15;9.82;;;2.70;;
59854;SDS011;45732;52.850;6.896;2022-10-16T16:24:41;12.82;;;3.70;;
59854;SDS011;45732;52.850;6.896;2022-10-16T16:27:07;10.32;;;3.40;;
59854;SDS011;45732;52.850;6.896;2022-10-16T16:29:33;10.73;;;3.25;;
59854;SDS011;45732;52.850;6.896;2022-10-16T16:31:59;11.25;;;3.15;;
59854;SDS011;45732;52.850;6.896;2022-10-16T16:34:28;11.05;;;3.38;;
59854;SDS011;45732;52.850;6.896;2022-10-16T16:36:54;16.55;;;3.13;;
59854;SDS011;45732;52.850;6.896;2022-10-16T16:39:21;10.90;;;3.17;;
59854;SDS011;45732;52.850;6.896;2022-10-16T16:41:48;12.07;;;3.33;;
59854;SDS011;45732;52.850;6.896;2022-10-16T16:44:14;9.68;;;4.05;;
59854;SDS011;45732;52.850;6.896;2022-10-16T16:46:41;10.52;;;3.38;;
59854;SDS011;45732;52.850;6.896;2022-10-16T16:49:08;8.10;;;3.28;;
59854;SDS011;45732;52.850;6.896;2022-10-16T16:51:36;10.70;;;3.00;;
59854;SDS011;45732;52.850;6.896;2022-10-16T16:54:02;13.55;;;3.50;;